Henderson, Texas
Current Conditions -  °F | °C
As of 6:15 PM on Friday 21 Nov 2014 (Local Time) from KRFI Reporting Station
Light Rain Light Rain  
Wind Chill: 59°   Ceiling: 4800
Heat Index: 59°   Visibility: 10mi
Dew Point: 58°   Wind: 6mph
Humidity: 97%   Direction: 140°SE
Pressure: 30.17"   Gusts: NA
Location:  32.15°N, 94.8°W
Report Text: KRFI 220015Z AUTO 14005KT 10SM -RA BKN048 OVC055 15/15 A3017 RMK AO2 T01500146
Loading
Personal Weather Stations






























Interactive Weather Map New forecast layout! Learn more

10-Day Weather Forecast

Advertisements
Track Severe Weather on mobile